Choose a state:
Most recent flow and stage for Wyoming
(Stations highlighted in red are currently above flood stage)
USGS
station
ID
USGS station name NWS
flood
stage
(ft)
Most recent
stage
(ft)
Most recent
flow
(cfs)
Historical
peaks
(cfs)
Most recent
local
date/time
NWS
station
ID
06036805 Firehole River at Old Faithful, YNP   2.70 85.4 477 2022-05-21 03:00:00  
06036905 Firehole River near West Yellowstone MT   3.36 367 2,050 2022-05-21 03:00:00  
06036940 Tantalus Creek at Norris Junction, YNP   1.51 4.88 60.0 2022-05-21 03:30:00  
06037100 Gibbon River at Madison Jct, YNP   5.00 204 1,010 2022-05-21 03:00:00 GMJW4
06186500 Yellowstone River at Yellowstone Lk Outlet YNP 9 3.32 1,090 9,950 2022-05-21 03:30:00 YLOW4
06188000 Lamar River nr Tower Ranger Station YNP 15 3.86 1,820 19,500 2022-05-21 03:15:00 TFLW4
06190540 Boiling River at Mammoth,YNP   1.21 28.6 36.0 2022-05-21 03:15:00  
06218500 WIND RIVER NEAR DUBOIS, WY 5 3.20 274 2,180 2022-05-21 03:15:00 DUBW4
06220800 WIND RIVER ABOVE RED CREEK, NEAR DUBOIS, WY 9.5 4.03 1,010 11,300 2022-05-21 03:45:00 WRCW4
06221400 DINWOODY CREEK ABOVE LAKES, NEAR BURRIS, WY   2.84 132 3,550 2022-05-21 03:45:00  
06224000 BULL LAKE CREEK ABOVE BULL LAKE, WY   3.22 345 4,830 2022-05-21 03:15:00  
06227600 WIND RIVER NEAR KINNEAR, WY 9 4.26 481 16,600 2022-05-21 03:00:00 KINW4
06228000 WIND RIVER AT RIVERTON, WY 9 3.57 565 13,300 2022-05-21 03:15:00 WDRW4
06228350 SF L WIND RIV AB WASHAKIE RES, NR FT WASHAKIE, WY   3.19 126 2,970 2022-05-21 03:30:00  
06235500 LITTLE WIND RIVER NEAR RIVERTON, WY 8 3.38 769 14,700 2022-05-21 03:15:00 RVTW4
06236100 WIND RIVER AB BOYSEN RESERVOIR, NR SHOSHONI, WY   3.67 1,580 19,200 2022-05-21 03:15:00  
06253000 FIVEMILE CREEK NEAR SHOSHONI, WY   2.86 223 3,500 2022-05-21 03:00:00  
06258000 MUDDY CREEK NEAR SHOSHONI, WY   2.10 33.9 16,300 2022-05-21 03:00:00  
06274300 BIGHORN RIVER AT BASIN, WY 10.5 4.70 2,610 19,500 2022-05-21 03:15:00 BHBW4
06278300 SHELL CREEK ABOVE SHELL CREEK RESERVOIR, WY   3.39 Eqp 1,870 2022-05-21 03:45:00  
06279500 BIGHORN RIVER AT KANE, WY   3.72 3,490 25,200 2022-05-21 03:15:00 LVEW4
06279940 NORTH FORK SHOSHONE RIVER AT WAPITI, WY 8 3.84 1,550 11,200 2022-05-21 03:15:00 NFSW4
06280300 SOUTH FORK SHOSHONE RIVER NEAR VALLEY, WY 9 4.92 466 10,000 2022-05-21 03:00:00 VLYW4
06281000 SOUTH FORK SHOSHONE RIVER AB BUFFALO BILL RES, WY 9.5 5.34 500 9,960 2022-05-21 03:00:00 BBRW4
06285100 SHOSHONE RIVER NEAR LOVELL, WY 11 5.29 692 16,400 2022-05-21 03:45:00 SLOW4
06305700 Goose Creek near Acme, WY   3.30 214 5,780 2022-05-21 03:45:00 GCAW4
06309200 MIDDLE FORK POWDER RIVER NEAR BARNUM, WY 10.5 6.36 116 7,110 2022-05-21 03:00:00 MFBW4
06317000 POWDER RIVER AT ARVADA, WY   2.48 464 100,000 2022-05-21 03:30:00 ARVW4
06318500 CLEAR CREEK NEAR BUFFALO, WY 6.5 1.77 34.2 3,420 2022-05-21 03:00:00 CCBW4
06386500 CHEYENNE RIVER NEAR SPENCER, WY   4.29 29.9 16,000 2022-05-21 03:45:00  
06426500 BELLE FOURCHE RIVER BELOW MOORCROFT, WY 13 1.32 8.52 15,300 2022-05-21 03:15:00 BFRW4
06427850 BELLE FOURCHE RIVER AT DEVILS TOWER, WY   1.29

 

  2022-05-21 03:00:00  
06620000 NORTH PLATTE RIVER NEAR NORTHGATE, CO 8 4.54 1,600 8,000 2022-05-21 03:45:00 NGTC2
06622700 NORTH BRUSH CREEK NEAR SARATOGA, WY   2.95 93.8 1,550 2022-05-21 03:30:00  
06623800 ENCAMPMENT RIVER AB HOG PARK CR, NR ENCAMPMENT, WY 5.5 3.44 480 2,280 2022-05-21 03:30:00 HOGW4
06625000 ENCAMPMENT RIVER AT MOUTH, NEAR ENCAMPMENT, WY 6.5 4.67 1,590 4,720 2022-05-21 03:30:00 ECRW4
06630000 N PLATTE RIV AB SEMINOE RESERVOIR, NR SINCLAIR, WY 9 6.49 5,130 16,700 2022-05-21 03:45:00 SINW4
06630465 Medicine Bow R ab E Fk Med Bow nr Elk Mountain, WY 7 4.59 172 1,300 2022-05-21 03:45:00 MBRW4
06632400 ROCK CREEK AB KING CANYON CANAL, NR ARLINGTON, WY   2.24 296 2,800 2022-05-21 03:15:00 KCRW4
06634060 L Medicine Bow R ab Sand Cr, nr Shirley Basin, WY   2.29 51.9 1,730 2022-05-21 03:45:00  
06634620 L MEDICINE BOW R AT BOLES SPRING, NR MEDICINE BOW 8 2.51 107 1,900 2022-05-21 03:30:00 LMBW4
06635000 MEDICINE BOW R AB SEMINOE RESERVOIR, NR HANNA, WY 6 2.82 144 6,010 2022-05-21 03:45:00 HANW4
06638090 SWEETWATER RIVER NEAR SWEETWATER STATION, WY 7 2.38 148 5,750 2022-05-21 03:30:00 SWSW4
06646000 DEER CREEK IN CANYON, NEAR GLENROCK, WY   4.50 170 4,240 2022-05-21 03:45:00  
06652000 NORTH PLATTE RIVER AT ORIN, WY 8 3.92 966 23,800 2022-05-21 03:45:00 ORIW4
06657000 NORTH PLATTE RIVER BELOW WHALEN DIVERSION DAM, WY   4.45 11.7 22,000 2022-05-21 03:00:00  
06660000 LARAMIE RIVER AT LARAMIE, WY 9 6.80 459 3,250 2022-05-21 03:00:00 LLRW4
06670500 LARAMIE RIVER NEAR FORT LARAMIE, WY 7 2.29 42.4 6,260 2022-05-21 03:00:00 FLAW4
06674500 NORTH PLATTE RIVER AT WYOMING-NEBRASKA STATE LINE 5.5 1.41 6.73 17,900 2022-05-21 03:45:00 HENN1
09188500 GREEN RIVER AT WARREN BRIDGE, NEAR DANIEL, WY 6 2.38 646 5,930 2022-05-21 03:45:00 WBRW4
09196500 PINE CREEK ABOVE FREMONT LAKE, WY   3.43 247 2,570 2022-05-21 03:45:00 FRAW4
09205000 NEW FORK RIVER NEAR BIG PINEY, WY 8 3.02 495 9,480 2022-05-21 03:00:00 BPNW4
09209400 GREEN RIVER NEAR LA BARGE, WY 9 5.53 1,290 18,800 2022-05-21 03:00:00 LABW4
09210500 FONTENELLE C NR HERSCHLER RANCH, NR FONTENELLE, WY 11.5 6.17 124 907 2022-05-21 02:45:00 FCHW4
09211200 GREEN RIVER BELOW FONTENELLE RESERVOIR, WY 16.5 11.30 699 19,400 2022-05-21 03:00:00 GBFW4
09213500 BIG SANDY RIVER NEAR FARSON, WY   4.07 169 1,890 2022-05-21 03:00:00 BSRW4
09213700 BIG SANDY RESERVOIR NEAR FARSON, WY 6760 6744.60

 

  2022-05-20 22:00:00 BIGW4
09215000 PACIFIC CREEK NEAR FARSON, WY   4.79 0.97 972 2022-05-21 03:45:00  
09217000 GREEN RIVER NEAR GREEN RIVER, WY 7 1.15 815 22,200 2022-05-21 03:30:00 GRRW4
09217900 BLACKS FORK NEAR ROBERTSON, WY 5 3.38 527 3,780 2022-05-21 03:00:00 BNRU1
09218500 BLACKS FORK NEAR MILLBURNE, WY   3.19 180 2,530 2022-05-21 03:00:00  
09219200 Blacks Fork above Smiths Fork, near Lyman, WY   2.96 1.13 1,200 2022-05-21 03:45:00  
09220000 EAST FORK OF SMITHS FORK NEAR ROBERTSON, WY 7.7 4.86 230 1,450 2022-05-21 03:15:00 SFRW4
09222400 MUDDY CREEK NEAR HAMPTON, WY   3.15 179 754 2022-05-21 03:00:00  
09223000 HAMS FORK BELOW POLE CREEK, NEAR FRONTIER, WY 6.5 3.76 240 2,230 2022-05-21 03:45:00 HMFW4
09224700 BLACKS FORK NEAR LITTLE AMERICA, WY 10.5 4.49 225 13,900 2022-05-21 03:00:00 LTAW4
09229500 HENRYS FORK NEAR MANILA, UT 7 3.78 200 6,750 2022-05-21 03:15:00 HFMW4
09258050 Muddy Creek above Olson Draw, near Dad, WY   3.73 12.1 465 2022-05-21 03:30:00  
09258980 MUDDY CREEK BELOW YOUNG DRAW, NEAR BAGGS, WY   2.24 5.53 755 2022-05-21 03:00:00  
10016900 BEAR RIVER AT EVANSTON, WY 7 3.91 1,110 3,890 2022-05-21 03:00:00 EVAW4
10020100 BEAR RIVER ABOVE RESERVOIR, NEAR WOODRUFF, UT   4.36 1,260 4,150 2022-05-21 03:45:00 BEAW4
10020300 BEAR RIVER BELOW RESERVOIR, NEAR WOODRUFF, UT 8.2 2.47 17.8 3,820 2022-05-21 03:45:00 BRWU1
10028500 BEAR RIVER BELOW PIXLEY DAM, NEAR COKEVILLE, WY 8.5 1.05 3.21 2,300 2022-05-21 03:15:00 PIXW4
10032000 SMITHS FORK NEAR BORDER, WY 5.5 2.03 376 2,100 2022-05-21 03:30:00 BORW4
10038000 BEAR RIVER BELOW SMITHS FORK, NR COKEVILLE, WY 6 3.15 377 5,620 2022-05-21 03:30:00 COKW4
13010065 SNAKE RIVER AB JACKSON LAKE AT FLAGG RANCH WY 10 4.75 1,940 15,000 2022-05-21 03:30:00 FLGW4
13011000 SNAKE RIVER NEAR MORAN, WY   5.18 2,090 15,100 2022-05-21 03:45:00 JLKW4
13011500 PACIFIC CREEK AT MORAN, WY 8 6.24 862 5,790 2022-05-21 03:30:00 PACW4
13011820 Blackrock Cr bl Split Rock Cr, nr Moran, WY   3.90 Ice 1,100 2022-05-21 03:15:00  
13011900 BUFFALO FORK AB LAVA CREEK NR MORAN WY 8.5 2.62 1,010 6,540 2022-05-21 03:30:00 BFKW4
13012465 Leidy Creek at mouth, near Moran, WY   1.76 9.03 79.3 2022-05-21 03:30:00  
13012475 South Fork Spread Cr at mouth, nr Moran, WY   2.63 79.6 553 2022-05-21 03:45:00  
13013650 SNAKE RIVER AT MOOSE, WY 15 10.72 4,750 25,300 2022-05-21 03:00:00 MSEW4
13014300 GROS VENTRE R AB UPPER SLIDE LK, NR KELLY, WY   8.11 588 3,200 2022-05-21 03:15:00  
13014500 GROS VENTRE RIVER AT KELLY, WY 8 5.32 1,030 6,960 2022-05-21 03:00:00 GVKW4
13015000 GROS VENTRE RIVER AT ZENITH, WY   18.59 449 6,170 2022-05-21 03:15:00 GVZW4
13016305 GRANITE C AB GRANITE C SUPPLEMENTAL, NR MOOSE, WY   4.29 32.1 599 2022-05-21 03:00:00  
13016450 FISH CREEK AT WILSON, WY   2.60 189 1,430 2022-05-21 03:00:00  
13018300 CACHE CREEK NEAR JACKSON, WY   3.64 15.7 225 2022-05-21 03:45:00  
13018350 FLAT CREEK BELOW CACHE CREEK, NEAR JACKSON, WY   1.77 93.3 390 2022-05-21 03:45:00  
13018750 SNAKE RIVER BELOW FLAT CREEK, NEAR JACKSON, WY 10 4.08 6,200 30,200 2022-05-21 03:30:00 JKSW4
13019500 HOBACK RIVER NEAR JACKSON, WY   6.35

 

6,160 2022-05-21 03:00:00  
13022500 SNAKE RIVER ABOVE RESERVOIR, NEAR ALPINE, WY   6.17 8,540 38,600 2022-05-21 03:30:00 ALPW4
13023000 GREYS RIVER ABOVE RESERVOIR, NEAR ALPINE, WY   2.84 1,230 7,230 2022-05-21 03:30:00 GREW4
13025500 CROW CREEK NEAR FAIRVIEW, WY   2.55 82.2 379 2022-05-21 03:45:00  
13027500 SALT RIVER ABOVE RESERVOIR, NEAR ETNA, WY 5.5 2.81 1,050 5,090 2022-05-21 03:30:00 SALW4